Time;durP1;ratioP1;P1;durP2;ratioP2;P2;SDS_P1;SDS_P2;PMS_P1;PMS_P2;Temp;Humidity;BMP_temperature;BMP_pressure;BME280_temperature;BME280_humidity;BME280_pressure;Samples;Min_cycle;Max_cycle;Signal;HPM_P1;HPM_P2
2021/04/03 00:00:16;;;;;;;10.85;4.40;;;11.80;99.90;;;;;;5080053;28;20047;-54
2021/04/03 00:03:21;;;;;;;8.65;4.13;;;11.80;99.90;;;;;;5077195;28;20055;-53
2021/04/03 00:06:26;;;;;;;9.52;4.70;;;11.80;99.90;;;;;;5077540;28;20083;-49
2021/04/03 00:09:31;;;;;;;12.55;4.68;;;11.90;99.90;;;;;;5078548;28;20055;-54
2021/04/03 00:12:35;;;;;;;8.40;4.18;;;11.90;99.90;;;;;;5079351;28;20046;-49
2021/04/03 00:15:40;;;;;;;7.85;4.57;;;11.90;99.90;;;;;;5079710;28;20521;-50
2021/04/03 00:18:44;;;;;;;9.15;3.95;;;11.50;99.90;;;;;;5080256;28;20041;-49
2021/04/03 00:21:48;;;;;;;13.77;4.53;;;11.50;99.90;;;;;;5076901;28;20412;-49
2021/04/03 00:24:53;;;;;;;8.80;4.70;;;11.30;99.90;;;;;;5079812;28;20545;-51
2021/04/03 00:27:57;;;;;;;10.75;5.32;;;11.30;99.90;;;;;;5079179;28;20058;-50
2021/04/03 00:31:00;;;;;;;11.55;5.65;;;11.30;99.90;;;;;;5079199;28;20051;-54
2021/04/03 00:34:04;;;;;;;9.40;4.93;;;11.40;99.90;;;;;;5077195;28;20043;-49
2021/04/03 00:37:08;;;;;;;8.15;5.32;;;11.40;99.90;;;;;;5076494;28;20135;-50
2021/04/03 00:40:18;;;;;;;9.48;5.15;;;11.40;99.90;;;;;;5079684;28;20048;-47
2021/04/03 00:43:23;;;;;;;9.82;5.13;;;11.40;99.90;;;;;;5078057;28;20048;-50
2021/04/03 00:46:27;;;;;;;8.32;5.10;;;11.30;99.90;;;;;;5079309;28;20048;-50
2021/04/03 00:49:31;;;;;;;9.77;5.40;;;11.20;99.90;;;;;;5080121;28;20060;-50
2021/04/03 00:52:36;;;;;;;12.35;5.90;;;11.20;99.90;;;;;;5082540;28;20043;-48
2021/04/03 00:55:41;;;;;;;9.57;5.25;;;11.10;99.90;;;;;;5078762;28;20047;-51
2021/04/03 00:58:46;;;;;;;8.50;5.20;;;11.10;99.90;;;;;;5079297;28;20401;-53
2021/04/03 01:01:54;;;;;;;9.23;5.55;;;11.10;99.90;;;;;;5077293;28;20044;-49
2021/04/03 01:04:59;;;;;;;12.07;5.40;;;11.00;99.90;;;;;;5080731;28;20031;-50
2021/04/03 01:08:05;;;;;;;10.40;5.88;;;10.90;99.90;;;;;;5081540;28;20047;-50
2021/04/03 01:11:11;;;;;;;11.50;5.35;;;10.80;99.90;;;;;;5078813;28;20051;-49
2021/04/03 01:14:25;;;;;;;14.20;5.53;;;10.70;99.90;;;;;;5078721;28;20050;-50
2021/04/03 01:17:34;;;;;;;11.20;6.25;;;10.60;99.90;;;;;;5068369;28;20047;-49
2021/04/03 01:20:52;;;;;;;10.73;6.70;;;10.60;99.90;;;;;;5079965;28;20044;-51
2021/04/03 01:24:25;;;;;;;12.50;6.18;;;10.60;99.90;;;;;;5078291;28;20035;-53
2021/04/03 01:27:30;;;;;;;10.70;6.07;;;10.50;99.90;;;;;;5081258;28;20035;-48
2021/04/03 01:30:37;;;;;;;11.30;6.10;;;10.40;99.90;;;;;;5082416;28;20411;-48
2021/04/03 01:33:45;;;;;;;15.80;7.07;;;10.40;99.90;;;;;;5075353;28;20517;-48
2021/04/03 01:36:57;;;;;;;10.07;6.82;;;10.30;99.90;;;;;;5076523;28;20464;-51
2021/04/03 01:40:01;;;;;;;12.05;6.18;;;10.20;99.90;;;;;;5075788;28;20043;-51
2021/04/03 01:43:23;;;;;;;10.38;5.82;;;10.20;99.90;;;;;;5079963;28;20039;-51
2021/04/03 01:46:32;;;;;;;12.68;6.53;;;10.20;99.90;;;;;;5077389;28;20040;-48
2021/04/03 01:49:39;;;;;;;11.68;6.68;;;10.00;99.90;;;;;;5075432;28;20040;-48
2021/04/03 01:52:44;;;;;;;12.77;7.03;;;9.90;99.90;;;;;;5079450;28;20048;-48
2021/04/03 01:55:50;;;;;;;14.70;7.78;;;9.80;99.90;;;;;;5075223;28;20058;-49
2021/04/03 01:58:56;;;;;;;14.75;7.70;;;9.70;99.90;;;;;;5087522;28;20058;-48
2021/04/03 02:02:02;;;;;;;11.98;7.85;;;9.60;99.90;;;;;;5078735;28;20039;-48
2021/04/03 02:05:13;;;;;;;10.63;7.70;;;9.60;99.90;;;;;;5075844;28;20047;-48
2021/04/03 02:08:19;;;;;;;10.75;7.55;;;9.60;99.90;;;;;;5085400;28;20055;-49
2021/04/03 02:11:43;;;;;;;18.30;8.45;;;9.60;99.90;;;;;;5087882;28;20038;-48
2021/04/03 02:15:09;;;;;;;14.63;8.30;;;9.60;99.90;;;;;;5088684;28;20036;-47
2021/04/03 02:18:16;;;;;;;14.80;7.38;;;9.60;99.90;;;;;;5089785;28;20044;-47
2021/04/03 02:21:22;;;;;;;16.60;7.47;;;9.50;99.90;;;;;;5088972;28;20052;-49
2021/04/03 02:24:28;;;;;;;13.27;8.52;;;9.50;99.90;;;;;;5088478;28;20040;-47
2021/04/03 02:27:33;;;;;;;16.35;8.85;;;9.50;99.90;;;;;;5089523;28;20043;-48
2021/04/03 02:30:39;;;;;;;17.98;10.23;;;9.60;99.90;;;;;;5076461;28;20441;-48
2021/04/03 02:33:44;;;;;;;14.63;9.23;;;9.60;99.90;;;;;;5088790;28;20039;-48
2021/04/03 02:36:48;;;;;;;14.15;8.07;;;9.60;99.90;;;;;;5087292;28;20051;-50
2021/04/03 02:39:52;;;;;;;17.00;8.98;;;9.50;99.90;;;;;;5088841;28;20514;-49
2021/04/03 02:43:02;;;;;;;18.05;9.43;;;9.50;99.90;;;;;;5080009;28;20513;-49
2021/04/03 02:46:35;;;;;;;16.58;9.00;;;9.50;99.90;;;;;;5068292;28;20048;-50
2021/04/03 02:49:43;;;;;;;21.83;10.35;;;9.40;99.90;;;;;;5076665;28;20035;-49
2021/04/03 02:52:52;;;;;;;21.20;9.35;;;9.40;99.90;;;;;;5071550;28;20518;-48
2021/04/03 02:56:01;;;;;;;19.48;9.73;;;9.40;99.90;;;;;;5070236;28;20049;-48
2021/04/03 02:59:11;;;;;;;16.17;9.73;;;9.40;99.90;;;;;;5079133;28;20035;-47
2021/04/03 03:02:18;;;;;;;18.40;9.48;;;9.30;99.90;;;;;;5084164;28;20521;-51
2021/04/03 03:05:23;;;;;;;17.15;10.93;;;9.30;99.90;;;;;;5074512;28;20032;-48
2021/04/03 03:08:30;;;;;;;15.30;10.43;;;9.20;99.90;;;;;;5070110;28;20044;-48
2021/04/03 03:11:43;;;;;;;18.90;10.88;;;9.10;99.90;;;;;;5073610;28;20028;-47
2021/04/03 03:14:50;;;;;;;23.15;10.88;;;8.80;99.90;;;;;;5071779;28;20043;-50
2021/04/03 03:17:56;;;;;;;14.90;10.23;;;8.60;99.90;;;;;;5073710;28;20059;-51
2021/04/03 03:21:01;;;;;;;18.40;11.13;;;8.60;99.90;;;;;;5073149;28;20039;-49
2021/04/03 03:24:07;;;;;;;18.10;10.30;;;8.50;99.90;;;;;;5070894;28;20039;-50
2021/04/03 03:27:13;;;;;;;21.25;10.35;;;8.40;99.90;;;;;;5070675;28;20047;-49
2021/04/03 03:30:21;;;;;;;16.77;10.88;;;8.30;99.90;;;;;;5070099;28;20039;-48
2021/04/03 03:33:29;;;;;;;19.48;10.98;;;8.30;99.90;;;;;;5084730;28;20059;-50
2021/04/03 03:36:36;;;;;;;14.82;10.27;;;8.30;99.90;;;;;;5070223;28;20051;-49
2021/04/03 03:39:42;;;;;;;17.60;10.35;;;8.30;99.90;;;;;;5069605;28;20047;-48
2021/04/03 03:42:48;;;;;;;19.27;10.35;;;8.30;99.90;;;;;;5082191;28;20047;-48
2021/04/03 03:45:57;;;;;;;16.67;10.10;;;8.30;99.90;;;;;;5071138;28;20043;-48
2021/04/03 03:49:03;;;;;;;14.32;9.52;;;8.30;99.90;;;;;;5075217;28;20398;-49
2021/04/03 03:52:07;;;;;;;16.50;10.30;;;8.40;99.90;;;;;;5072761;28;20035;-50
2021/04/03 03:55:15;;;;;;;15.35;9.38;;;8.50;99.90;;;;;;5076024;28;20509;-48
2021/04/03 03:58:23;;;;;;;17.17;10.88;;;8.50;99.90;;;;;;5076222;28;20043;-49
2021/04/03 04:01:29;;;;;;;20.10;11.27;;;8.40;99.90;;;;;;5076100;28;20505;-49
2021/04/03 04:04:33;;;;;;;18.65;10.60;;;8.30;99.90;;;;;;5075944;28;20047;-51
2021/04/03 04:07:43;;;;;;;22.05;10.38;;;8.30;99.90;;;;;;5089242;28;20039;-49
2021/04/03 04:10:47;;;;;;;17.98;11.63;;;8.30;99.90;;;;;;5085982;28;20068;-48
2021/04/03 04:13:54;;;;;;;16.33;10.63;;;8.20;99.90;;;;;;5090996;28;20043;-47
2021/04/03 04:17:06;;;;;;;;;;;8.20;99.90;;;;;;5091778;28;20047;-47
2021/04/03 04:20:16;;;;;;;15.40;10.48;;;8.00;99.90;;;;;;5091164;28;19931;-49
2021/04/03 04:23:26;;;;;;;21.75;11.10;;;8.00;99.90;;;;;;5077580;28;20047;-48
2021/04/03 04:26:35;;;;;;;21.65;11.60;;;7.90;99.90;;;;;;5090020;28;20540;-49
2021/04/03 04:29:40;;;;;;;18.30;11.70;;;7.90;99.90;;;;;;5091059;28;20043;-49
2021/04/03 04:32:45;;;;;;;18.55;11.80;;;7.90;99.90;;;;;;5091067;28;20509;-47
2021/04/03 04:35:54;;;;;;;14.90;10.70;;;7.90;99.90;;;;;;5090459;28;20517;-49
2021/04/03 04:39:01;;;;;;;16.92;11.18;;;7.90;99.90;;;;;;5091232;28;20043;-49
2021/04/03 04:42:07;;;;;;;21.63;11.38;;;7.90;99.90;;;;;;5087158;28;20357;-47
2021/04/03 04:45:18;;;;;;;20.17;11.63;;;7.90;99.90;;;;;;5091748;28;20063;-48
2021/04/03 04:48:22;;;;;;;17.55;11.00;;;7.90;99.90;;;;;;5090606;28;20039;-50
2021/04/03 04:51:34;;;;;;;20.60;12.07;;;8.00;99.90;;;;;;5090918;28;20050;-48
2021/04/03 04:54:50;;;;;;;18.08;11.68;;;8.10;99.90;;;;;;5089989;28;20285;-50
2021/04/03 04:57:55;;;;;;;18.33;11.30;;;8.10;99.90;;;;;;5080734;28;20051;-48
2021/04/03 05:01:03;;;;;;;20.85;10.60;;;8.20;99.90;;;;;;5089934;28;20039;-48
2021/04/03 05:04:24;;;;;;;16.85;10.68;;;8.30;99.90;;;;;;5078396;28;20047;-49
2021/04/03 05:07:28;;;;;;;15.57;10.48;;;8.40;99.90;;;;;;5089995;28;20615;-49
2021/04/03 05:10:34;;;;;;;16.88;10.77;;;8.50;99.90;;;;;;5091108;28;20047;-48
2021/04/03 05:13:39;;;;;;;17.02;11.20;;;8.70;99.90;;;;;;5091429;28;20615;-54
2021/04/03 05:16:43;;;;;;;21.92;11.77;;;8.80;99.90;;;;;;5077668;28;20509;-52
2021/04/03 05:19:48;;;;;;;20.40;11.25;;;8.80;99.90;;;;;;5086945;28;20054;-53
2021/04/03 05:22:52;;;;;;;20.40;10.60;;;8.80;99.90;;;;;;5090365;28;20521;-53
2021/04/03 05:25:56;;;;;;;17.77;10.05;;;8.80;99.90;;;;;;5089439;28;20516;-51
2021/04/03 05:29:01;;;;;;;14.57;9.70;;;8.80;99.90;;;;;;5090479;28;20043;-54
2021/04/03 05:32:06;;;;;;;15.23;9.50;;;9.00;99.90;;;;;;5078373;28;20520;-51
2021/04/03 05:35:11;;;;;;;17.65;9.52;;;9.20;99.90;;;;;;5090061;28;20060;-49
2021/04/03 05:38:15;;;;;;;13.38;9.73;;;9.40;99.90;;;;;;5089693;28;20046;-54
2021/04/03 05:41:19;;;;;;;19.77;10.10;;;9.40;99.90;;;;;;5089650;28;20521;-54
2021/04/03 05:44:24;;;;;;;16.48;9.52;;;9.60;99.90;;;;;;5090316;28;20047;-54
2021/04/03 05:47:29;;;;;;;13.55;9.80;;;10.50;99.90;;;;;;5077881;28;20088;-48
2021/04/03 05:50:34;;;;;;;15.20;9.10;;;11.20;99.90;;;;;;5076316;28;20031;-52
2021/04/03 05:53:39;;;;;;;19.80;8.30;;;11.90;99.90;;;;;;5089709;28;20039;-54
2021/04/03 05:56:43;;;;;;;13.98;9.23;;;12.70;99.90;;;;;;5089054;28;20146;-53
2021/04/03 05:59:48;;;;;;;12.57;7.55;;;13.50;99.90;;;;;;5089952;28;20047;-49
2021/04/03 06:02:52;;;;;;;20.40;10.18;;;15.00;99.90;;;;;;5071920;28;20027;-47
2021/04/03 06:05:58;;;;;;;17.23;9.95;;;15.20;99.90;;;;;;5072653;28;20043;-51
2021/04/03 06:09:04;;;;;;;16.67;9.70;;;15.80;99.90;;;;;;5077845;28;20106;-51
2021/04/03 06:12:08;;;;;;;16.92;9.65;;;16.20;99.90;;;;;;5078074;28;20110;-52
2021/04/03 06:15:32;;;;;;;14.02;8.48;;;15.70;99.90;;;;;;5074133;28;20031;-50
2021/04/03 06:18:36;;;;;;;15.95;7.90;;;15.80;99.90;;;;;;5074563;28;20043;-49
2021/04/03 06:21:54;;;;;;;12.23;7.88;;;15.50;99.90;;;;;;5073343;28;20051;-49
2021/04/03 06:25:04;;;;;;;13.82;8.32;;;15.50;99.90;;;;;;5079995;28;20107;-53
2021/04/03 06:28:10;;;;;;;11.82;7.75;;;15.30;99.90;;;;;;5074998;28;20051;-52
2021/04/03 06:31:17;;;;;;;10.05;7.43;;;15.30;99.90;;;;;;5075658;28;20051;-48
2021/04/03 06:34:35;;;;;;;13.15;8.25;;;15.30;99.90;;;;;;5079725;28;20865;-51
2021/04/03 06:37:39;;;;;;;13.35;7.70;;;16.20;99.90;;;;;;5077679;28;20043;-48
2021/04/03 06:40:44;;;;;;;11.45;7.55;;;17.20;99.90;;;;;;5081438;28;20043;-54
2021/04/03 06:44:04;;;;;;;13.27;7.72;;;16.70;99.90;;;;;;5069833;28;20055;-52
2021/04/03 06:47:09;;;;;;;9.63;6.70;;;17.10;99.90;;;;;;5072943;28;20414;-52
2021/04/03 06:50:17;;;;;;;13.65;7.30;;;17.30;99.90;;;;;;5076430;28;20053;-54
2021/04/03 06:53:22;;;;;;;12.45;7.18;;;19.40;99.20;;;;;;5076021;28;20059;-49
2021/04/03 06:56:28;;;;;;;9.90;6.93;;;21.30;98.10;;;;;;5075309;28;20541;-49
2021/04/03 06:59:32;;;;;;;9.88;6.25;;;22.60;94.30;;;;;;5074573;28;20036;-48
2021/04/03 07:03:15;;;;;;;10.02;6.10;;;23.20;92.60;;;;;;5072393;28;20048;-52
2021/04/03 07:06:23;;;;;;;10.52;6.03;;;24.80;90.40;;;;;;5076992;28;20040;-51
2021/04/03 07:09:28;;;;;;;10.93;6.40;;;25.20;85.20;;;;;;5073300;28;20055;-52
2021/04/03 07:12:33;;;;;;;10.88;7.05;;;23.50;86.40;;;;;;5070530;28;20033;-50
2021/04/03 07:15:38;;;;;;;12.38;7.78;;;22.80;86.20;;;;;;5079109;28;20398;-54
2021/04/03 07:18:43;;;;;;;17.10;8.35;;;20.40;90.10;;;;;;5077217;28;20057;-50
2021/04/03 07:21:48;;;;;;;12.13;7.35;;;21.10;90.30;;;;;;5083031;28;20043;-49
2021/04/03 07:24:52;;;;;;;10.23;6.55;;;23.40;86.70;;;;;;5080171;28;20059;-51
2021/04/03 07:27:56;;;;;;;9.73;6.82;;;24.40;84.60;;;;;;5080821;28;20048;-50
2021/04/03 07:31:01;;;;;;;12.65;6.88;;;25.80;80.90;;;;;;5080478;28;20518;-52
2021/04/03 07:34:06;;;;;;;11.38;7.28;;;24.10;79.00;;;;;;5079255;28;20035;-50
2021/04/03 07:37:11;;;;;;;15.40;8.98;;;20.30;89.80;;;;;;5078723;28;20419;-51
2021/04/03 07:40:36;;;;;;;17.33;9.07;;;20.60;90.80;;;;;;5082101;28;20059;-49
2021/04/03 07:43:44;;;;;;;16.67;9.13;;;21.60;87.70;;;;;;5081563;28;20039;-50
2021/04/03 07:46:48;;;;;;;16.50;8.73;;;21.70;86.50;;;;;;5079010;28;20430;-52
2021/04/03 07:49:53;;;;;;;17.48;10.20;;;21.20;88.20;;;;;;5080415;28;20055;-49
2021/04/03 07:52:58;;;;;;;14.35;9.57;;;20.50;89.50;;;;;;5078422;28;20185;-53
2021/04/03 07:56:03;;;;;;;28.35;10.48;;;20.50;90.50;;;;;;5082614;28;20039;-54
2021/04/03 07:59:07;;;;;;;18.05;8.63;;;19.90;91.80;;;;;;5074975;28;20053;-48
2021/04/03 08:02:14;;;;;;;9.93;7.45;;;21.60;90.90;;;;;;5083699;28;20040;-48
2021/04/03 08:05:18;;;;;;;15.20;7.65;;;23.30;87.80;;;;;;5085273;28;20040;-52
2021/04/03 08:08:22;;;;;;;10.45;7.32;;;25.10;82.50;;;;;;5075957;28;20043;-49
2021/04/03 08:11:28;;;;;;;13.98;7.63;;;26.30;80.80;;;;;;5075407;28;20407;-50
2021/04/03 08:14:34;;;;;;;13.15;8.25;;;24.10;79.30;;;;;;5074427;28;20498;-49
2021/04/03 08:17:39;;;;;;;12.10;7.15;;;22.50;83.50;;;;;;5076767;28;20051;-49
2021/04/03 08:20:51;;;;;;;9.18;6.88;;;25.00;82.30;;;;;;5077520;28;20051;-55
2021/04/03 08:23:57;;;;;;;10.75;6.95;;;27.10;77.60;;;;;;5075936;28;20410;-50
2021/04/03 08:27:02;;;;;;;9.65;6.93;;;25.70;74.40;;;;;;5076641;28;20417;-51
2021/04/03 08:30:21;;;;;;;10.27;7.22;;;26.30;75.20;;;;;;5072889;28;20036;-49
2021/04/03 08:33:30;;;;;;;12.10;7.35;;;24.90;75.20;;;;;;5084189;28;20036;-50
2021/04/03 08:36:36;;;;;;;14.07;7.57;;;23.40;79.90;;;;;;5082123;28;20544;-54
2021/04/03 08:39:40;;;;;;;13.65;9.95;;;24.80;79.30;;;;;;5071965;28;20048;-50
2021/04/03 08:42:45;;;;;;;13.55;8.88;;;24.20;76.40;;;;;;5072211;28;20048;-52
2021/04/03 08:45:50;;;;;;;16.83;9.10;;;26.40;74.50;;;;;;5073124;28;20537;-49
2021/04/03 08:48:58;;;;;;;14.05;10.65;;;24.30;75.50;;;;;;5072039;28;20044;-49
2021/04/03 08:52:05;;;;;;;14.35;9.05;;;25.20;75.90;;;;;;5079173;28;20051;-54
2021/04/03 08:55:09;;;;;;;12.88;9.10;;;24.60;77.20;;;;;;5079056;28;20047;-49
2021/04/03 08:58:14;;;;;;;17.40;8.20;;;25.40;75.20;;;;;;5078578;28;20074;-52
2021/04/03 09:01:20;;;;;;;18.75;9.35;;;25.90;73.40;;;;;;5084222;28;20410;-49
2021/04/03 09:04:25;;;;;;;17.25;9.07;;;24.60;76.20;;;;;;5084980;28;20047;-50
2021/04/03 09:07:37;;;;;;;14.90;7.68;;;22.30;80.50;;;;;;5086076;28;20051;-49
2021/04/03 09:10:41;;;;;;;11.13;6.25;;;22.60;78.80;;;;;;5090223;28;20512;-48
2021/04/03 09:13:46;;;;;;;12.20;6.00;;;21.60;78.50;;;;;;5090655;28;20047;-50
2021/04/03 09:16:51;;;;;;;13.20;6.30;;;21.00;80.30;;;;;;5089498;28;20055;-49
2021/04/03 09:20:06;;;;;;;10.35;5.10;;;21.70;82.40;;;;;;5078266;28;20039;-49
2021/04/03 09:23:10;;;;;;;12.70;5.97;;;22.90;78.20;;;;;;5080815;28;20047;-51
2021/04/03 09:26:14;;;;;;;12.75;5.25;;;21.60;81.50;;;;;;5081242;28;20044;-50
2021/04/03 09:29:19;;;;;;;8.95;4.90;;;21.70;81.40;;;;;;5073854;28;20415;-53
2021/04/03 09:32:23;;;;;;;7.88;3.78;;;23.10;78.70;;;;;;5087563;28;20542;-50
2021/04/03 09:35:28;;;;;;;9.70;3.50;;;26.20;70.00;;;;;;5073824;28;20044;-51
2021/04/03 09:38:33;;;;;;;10.65;3.65;;;27.50;68.10;;;;;;5069732;28;20040;-50
2021/04/03 09:41:45;;;;;;;8.35;3.40;;;28.10;66.40;;;;;;5068747;28;20055;-49
2021/04/03 09:44:50;;;;;;;4.57;2.88;;;26.70;66.20;;;;;;5068908;28;20517;-48
2021/04/03 09:48:00;;;;;;;7.30;3.60;;;27.90;64.20;;;;;;5074979;28;20111;-51
2021/04/03 09:51:05;;;;;;;7.88;3.80;;;27.30;64.30;;;;;;5074958;28;20400;-49
2021/04/03 09:54:09;;;;;;;8.90;3.20;;;26.60;66.20;;;;;;5077587;28;20650;-49
2021/04/03 09:57:15;;;;;;;5.65;3.30;;;27.00;63.30;;;;;;5077813;28;20051;-50
2021/04/03 10:00:19;;;;;;;11.55;3.92;;;27.30;64.40;;;;;;5074904;28;20461;-50
2021/04/03 10:03:24;;;;;;;7.15;3.33;;;26.00;65.80;;;;;;5092496;28;20544;-50
2021/04/03 10:06:28;;;;;;;5.15;3.10;;;27.70;64.00;;;;;;5095435;28;20552;-48
2021/04/03 10:09:33;;;;;;;8.68;3.75;;;26.20;66.20;;;;;;5093105;28;21776;-54
2021/04/03 10:12:38;;;;;;;7.30;3.33;;;30.30;61.30;;;;;;5090174;28;20513;-49
2021/04/03 10:15:42;;;;;;;4.32;2.65;;;32.40;58.90;;;;;;5094378;28;20417;-50
2021/04/03 10:18:46;;;;;;;6.30;3.22;;;32.40;56.20;;;;;;5077979;28;20048;-54
2021/04/03 10:21:50;;;;;;;9.27;3.75;;;26.30;61.90;;;;;;5091530;28;20035;-50
2021/04/03 10:24:54;;;;;;;9.32;3.70;;;25.60;65.30;;;;;;5091007;28;20055;-53
2021/04/03 10:27:59;;;;;;;6.50;3.78;;;24.50;65.60;;;;;;5096187;28;20047;-49
2021/04/03 10:31:03;;;;;;;7.80;3.40;;;23.70;68.20;;;;;;5084843;28;20047;-50
2021/04/03 10:34:07;;;;;;;5.60;3.10;;;25.60;65.10;;;;;;5091482;28;20518;-49
2021/04/03 10:37:12;;;;;;;6.22;3.60;;;28.90;61.60;;;;;;5099294;28;20046;-50
2021/04/03 10:40:17;;;;;;;5.50;3.30;;;29.50;59.30;;;;;;5098639;28;20751;-53
2021/04/03 10:43:22;;;;;;;6.75;4.03;;;28.20;61.70;;;;;;5087446;28;20406;-51
2021/04/03 10:46:26;;;;;;;9.02;3.42;;;24.40;65.70;;;;;;5096750;28;20043;-50
2021/04/03 10:49:29;;;;;;;5.78;3.28;;;25.60;63.80;;;;;;5086230;28;20050;-49
2021/04/03 10:52:34;;;;;;;5.50;3.20;;;26.30;63.70;;;;;;5085796;28;20032;-50
2021/04/03 10:55:39;;;;;;;5.70;3.20;;;29.60;60.50;;;;;;5093874;28;20031;-52
2021/04/03 10:58:43;;;;;;;4.38;2.78;;;30.80;58.50;;;;;;5087823;28;20039;-53
2021/04/03 11:01:48;;;;;;;5.50;2.97;;;32.60;58.00;;;;;;5088434;28;20508;-52
2021/04/03 11:04:53;;;;;;;7.22;3.10;;;29.30;56.80;;;;;;5083396;28;20039;-49
2021/04/03 11:07:58;;;;;;;8.32;2.90;;;26.80;61.90;;;;;;5085716;28;20028;-51
2021/04/03 11:11:03;;;;;;;5.13;2.90;;;31.40;58.40;;;;;;5081201;28;20032;-51
2021/04/03 11:14:07;;;;;;;8.95;3.03;;;34.60;54.10;;;;;;5081286;28;20048;-52
2021/04/03 11:17:11;;;;;;;4.20;2.63;;;34.60;52.40;;;;;;5081556;28;20035;-52
2021/04/03 11:20:15;;;;;;;5.82;2.38;;;35.80;51.30;;;;;;5085996;28;20039;-56
2021/04/03 11:23:20;;;;;;;4.38;2.30;;;38.00;48.50;;;;;;5083031;28;20040;-52
2021/04/03 11:26:24;;;;;;;3.92;2.15;;;39.40;45.70;;;;;;5078799;28;20032;-51
2021/04/03 11:29:28;;;;;;;4.30;2.28;;;39.50;44.40;;;;;;5083473;28;20044;-49
2021/04/03 11:32:32;;;;;;;6.82;3.03;;;35.60;44.70;;;;;;5071420;28;20044;-48
2021/04/03 11:35:37;;;;;;;8.23;2.88;;;35.70;46.20;;;;;;5074008;28;20052;-49
2021/04/03 11:38:41;;;;;;;6.53;3.00;;;33.50;47.20;;;;;;5079834;28;20618;-54
2021/04/03 11:41:46;;;;;;;6.88;3.20;;;30.50;51.50;;;;;;5085013;28;20040;-49
2021/04/03 11:44:50;;;;;;;9.23;4.10;;;27.60;52.50;;;;;;5084220;28;20529;-49
2021/04/03 11:47:54;;;;;;;7.32;3.40;;;25.20;58.50;;;;;;5082282;28;20043;-49
2021/04/03 11:50:58;;;;;;;6.90;3.40;;;26.30;55.90;;;;;;5069932;28;20040;-51
2021/04/03 11:54:03;;;;;;;5.50;3.83;;;27.50;54.80;;;;;;5071235;28;20038;-49
2021/04/03 11:57:07;;;;;;;6.90;3.85;;;27.60;55.40;;;;;;5070516;28;20028;-49
2021/04/03 12:00:12;;;;;;;8.55;3.40;;;27.40;54.60;;;;;;5071306;28;20048;-52
2021/04/03 12:03:17;;;;;;;6.13;3.47;;;29.70;53.70;;;;;;5056416;28;20047;-52
2021/04/03 12:06:21;;;;;;;6.13;3.90;;;30.30;52.30;;;;;;5072052;28;20608;-50
2021/04/03 12:09:26;;;;;;;6.03;3.55;;;25.90;56.70;;;;;;5080373;28;20043;-49
2021/04/03 12:12:30;;;;;;;6.15;3.83;;;27.00;55.30;;;;;;5073221;28;20048;-50
2021/04/03 12:15:38;;;;;;;11.15;3.63;;;27.80;55.60;;;;;;5078812;28;20044;-55
2021/04/03 12:18:42;;;;;;;12.07;4.00;;;29.50;54.10;;;;;;5071421;28;20047;-55
2021/04/03 12:21:46;;;;;;;6.20;3.55;;;29.20;54.00;;;;;;5075263;28;20043;-52
2021/04/03 12:24:50;;;;;;;5.95;3.35;;;26.50;56.20;;;;;;5073844;28;20421;-52
2021/04/03 12:27:55;;;;;;;9.20;4.75;;;27.20;55.90;;;;;;5080551;28;20052;-55
2021/04/03 12:30:59;;;;;;;6.07;3.17;;;29.40;53.40;;;;;;5080113;28;20043;-51
2021/04/03 12:34:03;;;;;;;5.15;3.30;;;31.40;51.70;;;;;;5077422;28;20035;-50
2021/04/03 12:37:08;;;;;;;12.27;4.90;;;29.00;54.20;;;;;;5073803;28;20060;-53
2021/04/03 12:40:13;;;;;;;10.82;5.10;;;27.70;55.30;;;;;;5081243;28;20047;-49
2021/04/03 12:43:16;;;;;;;6.25;4.13;;;28.50;52.90;;;;;;5085564;28;20051;-49
2021/04/03 12:46:21;;;;;;;10.23;4.13;;;28.30;54.20;;;;;;5081686;28;20032;-52
2021/04/03 12:49:26;;;;;;;8.20;4.47;;;28.40;53.90;;;;;;5074241;28;20043;-49
2021/04/03 12:52:31;;;;;;;10.70;4.22;;;25.90;56.40;;;;;;5068850;28;20399;-49
2021/04/03 12:55:35;;;;;;;7.88;3.70;;;26.00;58.70;;;;;;5071500;28;20051;-51
2021/04/03 12:58:40;;;;;;;6.60;3.70;;;27.60;58.30;;;;;;5069993;28;20040;-53
2021/04/03 13:01:45;;;;;;;13.75;4.10;;;27.40;57.10;;;;;;5070422;28;20040;-49
2021/04/03 13:04:49;;;;;;;5.90;3.50;;;28.50;56.30;;;;;;5068746;28;20035;-51
2021/04/03 13:07:55;;;;;;;4.90;3.80;;;28.20;54.20;;;;;;5072156;28;20032;-49
2021/04/03 13:10:59;;;;;;;18.15;4.65;;;27.20;56.30;;;;;;5070429;28;20043;-51
2021/04/03 13:14:03;;;;;;;9.52;3.83;;;25.10;60.10;;;;;;5068756;28;20039;-50
2021/04/03 13:17:08;;;;;;;6.95;4.03;;;24.40;60.10;;;;;;5068546;28;20031;-50
2021/04/03 13:20:13;;;;;;;8.32;3.80;;;24.10;61.50;;;;;;5070449;28;20041;-48
2021/04/03 13:23:19;;;;;;;8.52;3.28;;;24.50;60.80;;;;;;5070812;28;20037;-49
2021/04/03 13:26:23;;;;;;;8.00;3.90;;;25.10;61.00;;;;;;5072336;28;20047;-49
2021/04/03 13:29:27;;;;;;;5.25;4.07;;;25.30;59.30;;;;;;5070735;28;20063;-53
2021/04/03 13:32:31;;;;;;;10.73;4.15;;;24.90;59.50;;;;;;5068754;28;20049;-52
2021/04/03 13:35:35;;;;;;;9.40;3.88;;;24.60;61.00;;;;;;5068016;28;20407;-52
2021/04/03 13:38:39;;;;;;;7.80;4.25;;;24.00;61.60;;;;;;5070958;28;20509;-50
2021/04/03 13:41:44;;;;;;;6.53;4.07;;;23.70;62.60;;;;;;5071545;28;20039;-49
2021/04/03 13:44:50;;;;;;;13.35;2.95;;;23.30;64.00;;;;;;5067024;28;20028;-49
2021/04/03 13:47:54;;;;;;;11.38;3.13;;;21.80;66.10;;;;;;5067759;28;20518;-51
2021/04/03 13:50:58;;;;;;;5.28;3.22;;;20.60;69.80;;;;;;5080226;28;20044;-48
2021/04/03 13:54:02;;;;;;;8.52;3.53;;;19.80;72.10;;;;;;5068107;28;20039;-51
2021/04/03 13:57:07;;;;;;;9.32;3.55;;;19.50;73.50;;;;;;5073003;28;20047;-53
2021/04/03 14:00:12;;;;;;;14.43;4.88;;;19.20;74.70;;;;;;5071991;28;20063;-54
2021/04/03 14:03:16;;;;;;;14.32;5.38;;;18.90;76.20;;;;;;5069201;28;20051;-48
2021/04/03 14:06:20;;;;;;;11.00;4.65;;;18.80;77.20;;;;;;5070573;28;20048;-52
2021/04/03 14:09:25;;;;;;;14.80;5.07;;;18.60;78.00;;;;;;5073983;28;20047;-48
2021/04/03 14:12:29;;;;;;;11.75;4.85;;;18.50;79.50;;;;;;5070502;28;20051;-50
2021/04/03 14:15:33;;;;;;;14.95;5.43;;;18.40;80.60;;;;;;5074366;28;20052;-52
2021/04/03 14:18:38;;;;;;;10.13;4.40;;;18.40;81.20;;;;;;5072023;28;20047;-54
2021/04/03 14:21:43;;;;;;;8.65;3.83;;;18.40;81.40;;;;;;5077648;28;20054;-48
2021/04/03 14:24:49;;;;;;;5.85;3.00;;;18.40;81.10;;;;;;5086678;28;20028;-48
2021/04/03 14:27:53;;;;;;;8.30;3.03;;;18.40;82.10;;;;;;5078785;28;20040;-52
2021/04/03 14:30:57;;;;;;;14.32;2.97;;;18.10;83.00;;;;;;5078570;28;20028;-48
2021/04/03 14:34:03;;;;;;;11.80;6.32;;;18.00;82.60;;;;;;5084306;28;20040;-48
2021/04/03 14:37:08;;;;;;;5.63;2.40;;;17.90;83.60;;;;;;5073899;28;20041;-49
2021/04/03 14:40:13;;;;;;;7.07;2.20;;;17.80;83.90;;;;;;5071997;28;20047;-50
2021/04/03 14:43:18;;;;;;;3.67;2.10;;;17.90;84.90;;;;;;5068592;28;20040;-52
2021/04/03 14:46:22;;;;;;;3.28;2.08;;;17.80;84.70;;;;;;5083159;28;20044;-48
2021/04/03 14:49:27;;;;;;;3.63;2.17;;;17.70;86.20;;;;;;5076385;28;20036;-50
2021/04/03 14:52:33;;;;;;;10.90;2.65;;;17.70;86.80;;;;;;5073010;28;20047;-49
2021/04/03 14:55:39;;;;;;;6.68;2.00;;;17.70;86.80;;;;;;5068095;28;20039;-48
2021/04/03 14:58:44;;;;;;;3.75;1.85;;;17.80;87.20;;;;;;5082187;28;20441;-49
2021/04/03 15:01:50;;;;;;;5.88;2.38;;;17.70;87.70;;;;;;5074678;28;20071;-49
2021/04/03 15:04:55;;;;;;;4.18;2.05;;;17.70;88.70;;;;;;5070584;28;20043;-48
2021/04/03 15:07:59;;;;;;;9.80;2.85;;;17.50;89.80;;;;;;5073695;28;20803;-48
2021/04/03 15:11:07;;;;;;;5.28;2.22;;;17.20;90.60;;;;;;5072469;28;20028;-52
2021/04/03 15:14:11;;;;;;;6.95;2.55;;;17.10;91.40;;;;;;5067604;28;20205;-49
2021/04/03 15:17:15;;;;;;;8.38;2.30;;;16.80;91.70;;;;;;5086132;28;20414;-48
2021/04/03 15:20:19;;;;;;;12.02;2.35;;;16.70;91.80;;;;;;5079451;28;20044;-49
2021/04/03 15:23:24;;;;;;;5.13;2.20;;;16.40;93.00;;;;;;5075490;28;20399;-51
2021/04/03 15:26:29;;;;;;;3.72;1.83;;;16.20;93.50;;;;;;5086703;28;20032;-49
2021/04/03 15:29:34;;;;;;;13.00;2.95;;;16.10;93.80;;;;;;5079098;28;20036;-52
2021/04/03 15:32:38;;;;;;;7.53;2.33;;;16.20;94.30;;;;;;5069601;28;20059;-48
2021/04/03 15:35:42;;;;;;;5.05;2.25;;;16.20;95.00;;;;;;5075056;28;20039;-49
2021/04/03 15:38:46;;;;;;;9.90;2.70;;;16.10;95.30;;;;;;5073964;28;20045;-50
2021/04/03 15:41:51;;;;;;;12.43;3.13;;;16.10;95.50;;;;;;5076306;28;20036;-53
2021/04/03 15:44:55;;;;;;;5.95;2.92;;;16.10;95.40;;;;;;5074532;28;20040;-50
2021/04/03 15:48:00;;;;;;;8.18;2.58;;;16.00;95.30;;;;;;5076620;28;20501;-48
2021/04/03 15:51:05;;;;;;;5.05;2.58;;;16.10;95.50;;;;;;5075948;28;20036;-48
2021/04/03 15:54:09;;;;;;;6.55;2.97;;;16.00;96.00;;;;;;5079114;28;20410;-53
2021/04/03 15:57:15;;;;;;;8.13;3.20;;;15.90;96.40;;;;;;5075232;28;20039;-49
2021/04/03 16:00:20;;;;;;;7.60;2.85;;;15.70;96.90;;;;;;5073615;28;20051;-49
2021/04/03 16:03:24;;;;;;;4.40;3.15;;;15.60;97.20;;;;;;5076985;28;20043;-51